createdAt,value
2022-10-07T00:03:57.429Z,2.83
2022-10-07T00:09:02.553Z,2.80
2022-10-07T00:14:08.528Z,3.23
2022-10-07T00:19:14.240Z,3.23
2022-10-07T00:24:17.873Z,2.50
2022-10-07T00:29:22.769Z,2.60
2022-10-07T00:34:28.380Z,2.60
2022-10-07T00:39:32.076Z,2.57
2022-10-07T00:44:43.901Z,2.57
2022-10-07T00:49:51.760Z,2.60
2022-10-07T00:54:58.369Z,2.70
2022-10-07T01:00:04.716Z,2.60
2022-10-07T01:05:10.568Z,2.70
2022-10-07T01:10:17.202Z,2.50
2022-10-07T01:15:32.869Z,2.70
2022-10-07T01:20:41.175Z,3.40
2022-10-07T01:25:59.696Z,2.83
2022-10-07T01:31:08.678Z,3.00
2022-10-07T01:36:16.629Z,3.17
2022-10-07T01:41:23.282Z,3.00
2022-10-07T01:46:30.653Z,3.87
2022-10-07T01:51:40.197Z,2.90
2022-10-07T01:57:02.294Z,2.80
2022-10-07T02:02:15.399Z,3.07
2022-10-07T02:07:30.105Z,2.73
2022-10-07T02:12:39.338Z,2.97
2022-10-07T02:17:54.138Z,2.97
2022-10-07T02:23:01.114Z,2.80
2022-10-07T02:28:07.883Z,3.00
2022-10-07T02:33:15.667Z,3.17
2022-10-07T02:38:20.157Z,2.67
2022-10-07T02:43:31.071Z,3.43
2022-10-07T02:48:42.257Z,2.90
2022-10-07T02:53:50.971Z,3.57
2022-10-07T02:58:55.247Z,2.97
2022-10-07T03:04:00.647Z,3.00
2022-10-07T03:09:07.018Z,3.07
2022-10-07T03:14:10.756Z,3.33
2022-10-07T03:19:15.899Z,3.00
2022-10-07T03:24:27.246Z,3.60
2022-10-07T03:29:32.957Z,3.60
2022-10-07T03:34:38.470Z,3.60
2022-10-07T03:39:42.148Z,4.00
2022-10-07T03:44:50.178Z,4.23
2022-10-07T03:49:56.792Z,4.20
2022-10-07T03:55:01.022Z,4.00
2022-10-07T04:00:05.420Z,3.83
2022-10-07T04:05:21.343Z,4.10
2022-10-07T04:10:25.004Z,4.47
2022-10-07T04:15:28.580Z,3.70
2022-10-07T04:20:34.676Z,3.77
2022-10-07T04:25:38.753Z,3.70
2022-10-07T04:30:51.491Z,4.27
2022-10-07T04:36:05.717Z,4.10
2022-10-07T04:41:10.104Z,4.47
2022-10-07T04:46:15.779Z,3.87
2022-10-07T04:51:26.539Z,4.07
2022-10-07T04:56:34.209Z,4.50
2022-10-07T05:01:40.692Z,3.77
2022-10-07T05:06:47.516Z,3.57
2022-10-07T05:11:55.715Z,4.00
2022-10-07T05:17:00.328Z,3.27
2022-10-07T05:22:09.474Z,3.10
2022-10-07T05:27:14.832Z,2.80
2022-10-07T05:32:19.197Z,3.27
2022-10-07T05:37:25.072Z,3.13
2022-10-07T05:42:28.598Z,3.20
2022-10-07T05:47:34.482Z,14.87
2022-10-07T05:52:41.033Z,15.33
2022-10-07T05:57:44.769Z,15.50
2022-10-07T06:02:49.630Z,11.07
2022-10-07T06:07:54.743Z,6.30
2022-10-07T06:13:10.044Z,3.90
2022-10-07T06:18:16.397Z,2.70
2022-10-07T06:23:22.339Z,2.70
2022-10-07T06:28:26.205Z,2.57
2022-10-07T06:33:29.714Z,2.77
2022-10-07T06:38:35.694Z,2.50
2022-10-07T06:43:39.532Z,2.50
2022-10-07T06:48:48.029Z,2.30
2022-10-07T06:53:58.022Z,2.37
2022-10-07T06:59:03.780Z,1.83
2022-10-07T07:04:15.413Z,2.13
2022-10-07T07:09:22.830Z,2.20
2022-10-07T07:14:29.041Z,2.47
2022-10-07T07:19:43.158Z,2.03
2022-10-07T07:24:48.052Z,2.23
2022-10-07T07:29:52.435Z,1.88
2022-10-07T07:34:56.930Z,2.27
2022-10-07T07:40:01.785Z,2.72
2022-10-07T07:45:08.924Z,15.80
2022-10-07T07:50:12.732Z,5.00
2022-10-07T07:55:18.617Z,18.63
2022-10-07T08:00:22.594Z,12.45
2022-10-07T08:05:36.770Z,3.10
2022-10-07T08:10:43.025Z,10.88
2022-10-07T08:15:47.083Z,8.02
2022-10-07T08:20:57.757Z,5.97
2022-10-07T08:26:04.183Z,5.45
2022-10-07T08:31:10.442Z,2.08
2022-10-07T08:36:16.530Z,2.03
2022-10-07T08:41:40.999Z,2.83
2022-10-07T08:46:53.423Z,2.00
2022-10-07T08:52:03.073Z,1.40
2022-10-07T08:57:22.795Z,1.83
2022-10-07T09:02:33.505Z,1.80
2022-10-07T09:07:43.150Z,1.50
2022-10-07T09:12:52.768Z,1.70
2022-10-07T09:18:03.546Z,2.65
2022-10-07T09:23:14.092Z,2.20
2022-10-07T09:28:22.763Z,2.05
2022-10-07T09:33:29.836Z,1.48
2022-10-07T09:38:36.153Z,1.80
2022-10-07T09:43:44.529Z,1.88
2022-10-07T09:48:54.315Z,1.83
2022-10-07T09:54:02.967Z,2.00
2022-10-07T09:59:23.481Z,1.60
2022-10-07T10:04:32.541Z,1.67
2022-10-07T10:09:36.158Z,1.67
2022-10-07T10:14:47.232Z,1.63
2022-10-07T10:19:51.170Z,2.00
2022-10-07T10:25:12.107Z,2.25
2022-10-07T10:30:22.072Z,1.60
2022-10-07T10:35:29.074Z,1.65
2022-10-07T10:40:37.077Z,1.85
2022-10-07T10:45:51.197Z,1.63
2022-10-07T10:51:02.923Z,1.83
2022-10-07T10:56:21.076Z,1.40
2022-10-07T11:01:36.622Z,1.90
2022-10-07T11:06:44.089Z,2.67
2022-10-07T11:11:48.650Z,2.03
2022-10-07T11:16:56.793Z,1.80
2022-10-07T11:22:01.769Z,1.75
2022-10-07T11:27:15.590Z,1.70
2022-10-07T11:32:28.116Z,1.52
2022-10-07T11:37:39.705Z,1.55
2022-10-07T11:42:49.923Z,1.40
2022-10-07T11:48:00.102Z,1.58
2022-10-07T11:53:08.645Z,1.60
2022-10-07T11:58:25.324Z,1.50
2022-10-07T12:03:48.658Z,1.50
2022-10-07T12:08:53.865Z,1.55
2022-10-07T12:14:42.407Z,1.70
2022-10-07T12:19:47.728Z,1.42
2022-10-07T12:25:29.365Z,1.73
2022-10-07T12:30:50.332Z,1.90
2022-10-07T12:35:55.333Z,1.80
2022-10-07T12:41:13.519Z,1.60
2022-10-07T12:46:21.878Z,2.05
2022-10-07T12:51:31.556Z,2.65
2022-10-07T12:56:36.084Z,5.13
2022-10-07T13:02:01.345Z,4.57
2022-10-07T13:07:50.375Z,3.33
2022-10-07T13:12:58.246Z,1.70
2022-10-07T13:18:11.099Z,2.40
2022-10-07T13:23:17.771Z,1.45
2022-10-07T13:28:26.573Z,1.95
2022-10-07T13:33:31.562Z,1.52
2022-10-07T13:38:36.027Z,1.60
2022-10-07T13:43:43.856Z,2.20
2022-10-07T13:48:49.107Z,1.70
2022-10-07T13:53:56.313Z,5.65
2022-10-07T13:59:01.701Z,4.68
2022-10-07T14:04:21.085Z,1.77
2022-10-07T14:09:35.485Z,1.52
2022-10-07T14:14:42.697Z,1.60
2022-10-07T14:19:53.550Z,1.60
2022-10-07T14:25:00.551Z,1.48
2022-10-07T14:30:55.605Z,1.90
2022-10-07T14:36:10.515Z,1.92
2022-10-07T14:41:14.798Z,4.20
2022-10-07T14:46:21.367Z,6.55
2022-10-07T14:51:27.343Z,7.75
2022-10-07T14:56:33.396Z,3.38
2022-10-07T15:01:38.414Z,2.38
2022-10-07T15:06:42.154Z,5.00
2022-10-07T15:11:45.572Z,3.10
2022-10-07T15:16:51.002Z,2.28
2022-10-07T15:21:56.334Z,2.17
2022-10-07T15:27:00.506Z,2.50
2022-10-07T15:32:07.534Z,2.75
2022-10-07T15:37:10.926Z,2.30
2022-10-07T15:42:15.535Z,4.43
2022-10-07T15:47:20.597Z,7.20
2022-10-07T15:52:24.003Z,18.70
2022-10-07T15:57:27.716Z,17.60
2022-10-07T16:02:34.265Z,8.05
2022-10-07T16:07:37.964Z,4.07
2022-10-07T16:12:41.344Z,3.30
2022-10-07T16:17:46.295Z,2.30
2022-10-07T16:22:50.021Z,3.70
2022-10-07T16:28:10.937Z,7.30
2022-10-07T16:33:15.804Z,5.00
2022-10-07T16:38:19.410Z,3.95
2022-10-07T16:43:22.790Z,3.63
2022-10-07T16:48:28.811Z,3.42
2022-10-07T16:53:32.249Z,3.17
2022-10-07T16:58:37.650Z,3.95
2022-10-07T17:03:44.526Z,3.95
2022-10-07T17:08:49.281Z,3.67
2022-10-07T17:13:53.269Z,3.55
2022-10-07T17:18:59.376Z,3.70
2022-10-07T17:24:03.522Z,2.90
2022-10-07T17:29:10.163Z,3.83
2022-10-07T17:34:17.254Z,3.53
2022-10-07T17:39:21.148Z,4.10
2022-10-07T17:44:25.449Z,4.20
2022-10-07T17:49:31.150Z,3.83
2022-10-07T17:54:35.184Z,4.20
2022-10-07T18:00:06.998Z,4.72
2022-10-07T18:05:19.727Z,4.27
2022-10-07T18:10:23.137Z,5.60
2022-10-07T18:15:26.602Z,4.63
2022-10-07T18:20:31.806Z,4.20
2022-10-07T18:25:35.599Z,4.40
2022-10-07T18:30:39.327Z,5.70
2022-10-07T18:35:44.698Z,4.53
2022-10-07T18:40:48.051Z,3.90
2022-10-07T18:45:59.694Z,9.63
2022-10-07T18:51:05.703Z,26.83
2022-10-07T18:56:12.197Z,29.07
2022-10-07T19:01:17.235Z,31.60
2022-10-07T19:06:23.879Z,33.27
2022-10-07T19:11:29.357Z,20.57
2022-10-07T19:16:35.354Z,20.00
2022-10-07T19:21:40.557Z,21.23
2022-10-07T19:26:45.938Z,27.50
2022-10-07T19:31:50.292Z,25.93
2022-10-07T19:36:55.171Z,25.70
2022-10-07T19:41:58.879Z,23.50
2022-10-07T19:47:02.612Z,17.37
2022-10-07T19:52:07.721Z,15.50
2022-10-07T19:57:11.837Z,11.83
2022-10-07T20:02:15.271Z,11.33
2022-10-07T20:07:20.262Z,12.63
2022-10-07T20:12:23.715Z,10.07
2022-10-07T20:17:27.304Z,10.73
2022-10-07T20:22:34.525Z,9.93
2022-10-07T20:27:39.266Z,8.03
2022-10-07T20:32:43.917Z,8.33
2022-10-07T20:37:49.184Z,7.60
2022-10-07T20:42:54.272Z,7.37
2022-10-07T20:47:59.691Z,7.00
2022-10-07T20:53:04.477Z,7.50
2022-10-07T20:58:07.854Z,6.13
2022-10-07T21:03:11.508Z,6.23
2022-10-07T21:08:18.492Z,6.60
2022-10-07T21:13:21.886Z,5.97
2022-10-07T21:18:26.614Z,6.10
2022-10-07T21:23:31.818Z,5.80
2022-10-07T21:28:37.296Z,6.63
2022-10-07T21:33:40.876Z,5.83
2022-10-07T21:38:46.463Z,6.00
2022-10-07T21:43:50.789Z,5.87
2022-10-07T21:48:55.295Z,6.83
2022-10-07T21:54:00.213Z,7.27
2022-10-07T21:59:04.423Z,6.00
2022-10-07T22:04:08.207Z,6.20
2022-10-07T22:09:14.727Z,6.43
2022-10-07T22:14:18.751Z,6.53
2022-10-07T22:19:23.073Z,5.40
2022-10-07T22:24:27.967Z,5.90
2022-10-07T22:29:31.395Z,7.07
2022-10-07T22:34:52.142Z,6.90
2022-10-07T22:39:56.888Z,6.37
2022-10-07T22:45:00.333Z,5.57
2022-10-07T22:50:08.286Z,5.73
2022-10-07T22:55:13.154Z,6.30
2022-10-07T23:00:17.009Z,5.90
2022-10-07T23:05:20.475Z,6.87
2022-10-07T23:10:25.297Z,6.63
2022-10-07T23:15:29.875Z,7.30
2022-10-07T23:20:33.292Z,6.60
2022-10-07T23:25:43.060Z,6.03
2022-10-07T23:30:46.922Z,5.00
2022-10-07T23:35:50.666Z,6.30
2022-10-07T23:40:56.404Z,6.17
2022-10-07T23:45:59.852Z,6.10
2022-10-07T23:51:04.911Z,5.83
2022-10-07T23:56:09.906Z,5.53
